Time;durP1;ratioP1;P1;durP2;ratioP2;P2;SDS_P1;SDS_P2;PMS_P1;PMS_P2;Temp;Humidity;BMP_temperature;BMP_pressure;BME280_temperature;BME280_humidity;BME280_pressure;Samples;Min_cycle;Max_cycle;Signal;HPM_P1;HPM_P2
2022/01/01 00:01:54;;;;;;;21.77;14.37;;;14.10;99.90;;;;;;5059586;28;20565;-69
2022/01/01 00:04:21;;;;;;;14.53;9.77;;;14.10;99.90;;;;;;5053833;28;20950;-71
2022/01/01 00:06:48;;;;;;;19.93;11.63;;;14.10;99.90;;;;;;5061536;28;20454;-71
2022/01/01 00:09:15;;;;;;;22.57;13.63;;;14.00;99.90;;;;;;5061218;28;20466;-71
2022/01/01 00:11:42;;;;;;;29.00;11.60;;;14.00;99.90;;;;;;5072426;28;20575;-71
2022/01/01 00:14:09;;;;;;;15.47;11.30;;;14.00;99.90;;;;;;5067276;28;20584;-70
2022/01/01 00:16:38;;;;;;;17.40;8.50;;;14.10;99.90;;;;;;5061755;28;20515;-72
2022/01/01 00:19:05;;;;;;;21.47;8.60;;;14.10;99.90;;;;;;5059601;28;20440;-71
2022/01/01 00:21:32;;;;;;;16.60;9.50;;;14.10;99.90;;;;;;5069901;28;20457;-69
2022/01/01 00:23:59;;;;;;;20.97;8.00;;;14.00;99.90;;;;;;5081196;28;20459;-71
2022/01/01 00:26:27;;;;;;;14.47;9.80;;;14.00;99.90;;;;;;5070319;28;20577;-70
2022/01/01 00:28:54;;;;;;;12.93;9.20;;;14.00;99.90;;;;;;5071793;28;20563;-70
2022/01/01 00:31:21;;;;;;;16.67;10.00;;;14.10;99.90;;;;;;5066732;28;20533;-72
2022/01/01 00:33:49;;;;;;;13.33;9.20;;;14.10;99.90;;;;;;5069269;28;20572;-71
2022/01/01 00:36:16;;;;;;;20.77;11.07;;;14.10;99.90;;;;;;5063297;28;20610;-71
2022/01/01 00:38:43;;;;;;;21.73;9.70;;;14.10;99.90;;;;;;5068117;28;20923;-71
2022/01/01 00:41:10;;;;;;;15.03;7.87;;;14.10;99.90;;;;;;5075790;28;20929;-69
2022/01/01 00:43:37;;;;;;;15.73;8.47;;;14.10;99.90;;;;;;5068838;28;20588;-72
2022/01/01 00:46:04;;;;;;;18.47;7.70;;;14.10;99.90;;;;;;5060009;28;20888;-71
2022/01/01 00:48:31;;;;;;;17.60;7.60;;;14.00;99.90;;;;;;5069317;28;20508;-71
2022/01/01 00:51:00;;;;;;;11.80;5.90;;;14.00;99.90;;;;;;5070821;28;20544;-71
2022/01/01 00:53:27;;;;;;;11.97;7.40;;;14.10;99.90;;;;;;5056240;28;20446;-73
2022/01/01 00:55:54;;;;;;;14.80;8.60;;;14.00;99.90;;;;;;5060528;28;20476;-70
2022/01/01 00:58:21;;;;;;;13.03;6.37;;;14.00;99.90;;;;;;5067580;28;20457;-72
2022/01/01 01:00:48;;;;;;;12.33;8.53;;;14.00;99.90;;;;;;5055043;28;20465;-69
2022/01/01 01:03:17;;;;;;;14.00;8.07;;;14.00;99.90;;;;;;5065917;28;20454;-71
2022/01/01 01:05:45;;;;;;;12.73;6.77;;;13.90;99.90;;;;;;5060238;28;20473;-71
2022/01/01 01:08:16;;;;;;;14.87;6.23;;;13.90;99.90;;;;;;5068244;28;20446;-70
2022/01/01 01:10:46;;;;;;;8.43;5.60;;;13.90;99.90;;;;;;5057599;28;20535;-73
2022/01/01 01:13:15;;;;;;;10.80;6.57;;;13.90;99.90;;;;;;5059615;28;20579;-70
2022/01/01 01:15:42;;;;;;;11.93;6.57;;;13.90;99.90;;;;;;5061559;28;20481;-69
2022/01/01 01:18:10;;;;;;;18.33;6.47;;;13.90;99.90;;;;;;5061782;28;20453;-70
2022/01/01 01:20:37;;;;;;;17.03;5.83;;;14.00;99.90;;;;;;5066180;28;20569;-72
2022/01/01 01:23:05;;;;;;;9.07;5.17;;;14.00;99.90;;;;;;5064303;28;20588;-70
2022/01/01 01:25:39;;;;;;;11.67;7.80;;;14.10;99.90;;;;;;5062117;28;20481;-71
2022/01/01 01:28:08;;;;;;;10.57;4.90;;;14.00;99.90;;;;;;5067052;28;20433;-71
2022/01/01 01:30:35;;;;;;;9.87;5.30;;;14.00;99.90;;;;;;5057168;28;20450;-68
2022/01/01 01:33:02;;;;;;;17.80;8.53;;;14.00;99.90;;;;;;5058073;28;20479;-69
2022/01/01 01:35:29;;;;;;;9.87;6.20;;;14.00;99.90;;;;;;5068134;28;20560;-71
2022/01/01 01:37:56;;;;;;;7.03;4.13;;;14.10;99.90;;;;;;5068263;28;20450;-70
2022/01/01 01:40:23;;;;;;;10.37;7.20;;;14.00;99.90;;;;;;5066167;28;20906;-72
2022/01/01 01:42:52;;;;;;;11.27;5.30;;;14.00;99.90;;;;;;5061643;28;20477;-70
2022/01/01 01:45:21;;;;;;;9.10;6.40;;;14.00;99.90;;;;;;5065315;28;21075;-71
2022/01/01 01:47:50;;;;;;;22.87;6.43;;;14.00;99.90;;;;;;5064217;28;20468;-71
2022/01/01 01:50:19;;;;;;;14.07;6.53;;;14.00;99.90;;;;;;5061955;28;22431;-71
2022/01/01 01:52:50;;;;;;;8.47;5.93;;;14.00;99.90;;;;;;5055037;28;20442;-70
2022/01/01 01:55:17;;;;;;;14.10;5.60;;;13.90;99.90;;;;;;5055033;28;20477;-74
2022/01/01 01:57:44;;;;;;;8.47;5.27;;;14.00;99.90;;;;;;5061136;28;21599;-69
2022/01/01 02:00:31;;;;;;;12.03;6.13;;;14.00;99.90;;;;;;5060559;28;20775;-73
2022/01/01 02:02:58;;;;;;;17.63;6.23;;;14.00;99.90;;;;;;5068207;28;20457;-72
2022/01/01 02:05:26;;;;;;;8.00;4.07;;;14.00;99.90;;;;;;5059915;28;20488;-72
2022/01/01 02:07:53;;;;;;;9.37;5.63;;;14.00;99.90;;;;;;5059239;28;21331;-70
2022/01/01 02:10:21;;;;;;;10.07;4.43;;;13.90;99.90;;;;;;5061684;28;21969;-70
2022/01/01 02:12:53;;;;;;;8.40;5.17;;;14.00;99.90;;;;;;5058889;28;20457;-74
2022/01/01 02:15:41;;;;;;;10.97;5.50;;;14.00;99.90;;;;;;5056620;28;20477;-71
2022/01/01 02:18:08;;;;;;;14.07;6.33;;;14.00;99.90;;;;;;5048183;28;20462;-70
2022/01/01 02:20:36;;;;;;;12.17;6.80;;;14.00;99.90;;;;;;5057662;28;20542;-69
2022/01/01 02:23:05;;;;;;;12.27;6.73;;;14.10;99.90;;;;;;5057448;28;21045;-70
2022/01/01 02:25:32;;;;;;;28.53;7.00;;;14.10;99.90;;;;;;5053158;28;20590;-68
2022/01/01 02:27:59;;;;;;;10.97;5.13;;;14.00;99.90;;;;;;5051927;28;20539;-67
2022/01/01 02:30:27;;;;;;;14.33;5.60;;;14.00;99.90;;;;;;5056615;28;21000;-71
2022/01/01 02:32:54;;;;;;;6.83;4.07;;;14.00;99.90;;;;;;5056396;28;20446;-72
2022/01/01 02:35:21;;;;;;;10.93;5.43;;;13.90;99.90;;;;;;5059904;28;20558;-69
2022/01/01 02:37:50;;;;;;;5.47;3.80;;;13.90;99.90;;;;;;5071905;28;20499;-70
2022/01/01 02:40:17;;;;;;;10.07;5.63;;;13.90;99.90;;;;;;5077620;28;20473;-72
2022/01/01 02:42:45;;;;;;;12.00;4.87;;;13.90;99.90;;;;;;5083770;28;20557;-71
2022/01/01 02:45:14;;;;;;;14.90;8.53;;;13.90;99.90;;;;;;5065530;28;20480;-72
2022/01/01 02:47:41;;;;;;;17.57;5.90;;;13.90;99.90;;;;;;5075707;28;20956;-70
2022/01/01 02:50:09;;;;;;;13.20;5.57;;;13.80;99.90;;;;;;5068074;28;21225;-73
2022/01/01 02:52:36;;;;;;;11.40;4.93;;;13.80;99.90;;;;;;5065689;28;20633;-74
2022/01/01 02:55:06;;;;;;;5.47;3.93;;;13.90;99.90;;;;;;5077947;28;20596;-73
2022/01/01 02:57:33;;;;;;;15.97;6.97;;;13.80;99.90;;;;;;5056802;28;20825;-71
2022/01/01 03:00:00;;;;;;;17.30;5.30;;;13.80;99.90;;;;;;5075831;28;20450;-70
2022/01/01 03:02:27;;;;;;;11.40;5.20;;;13.80;99.90;;;;;;5059511;28;21649;-70
2022/01/01 03:04:54;;;;;;;7.63;5.20;;;13.80;99.90;;;;;;5072719;28;20477;-70
2022/01/01 03:07:21;;;;;;;13.87;5.17;;;13.80;99.90;;;;;;5076955;28;20556;-71
2022/01/01 03:09:48;;;;;;;12.63;5.40;;;13.80;99.90;;;;;;5068005;28;20555;-74
2022/01/01 03:12:19;;;;;;;12.10;5.70;;;13.80;99.90;;;;;;5064293;28;20481;-70
2022/01/01 03:14:46;;;;;;;11.63;5.60;;;13.80;99.90;;;;;;5079256;28;20462;-71
2022/01/01 03:17:13;;;;;;;14.53;6.37;;;13.90;99.90;;;;;;5076739;28;20457;-71
2022/01/01 03:19:40;;;;;;;9.47;7.13;;;13.80;99.90;;;;;;5075819;28;20892;-71
2022/01/01 03:22:07;;;;;;;13.93;4.80;;;13.90;99.90;;;;;;5070524;28;20506;-70
2022/01/01 03:24:34;;;;;;;11.93;6.93;;;13.90;99.90;;;;;;5071417;28;20470;-72
2022/01/01 03:27:02;;;;;;;8.63;5.10;;;13.90;99.90;;;;;;5070884;28;20536;-69
2022/01/01 03:29:32;;;;;;;14.70;4.37;;;13.90;99.90;;;;;;5074457;28;20465;-71
2022/01/01 03:31:59;;;;;;;17.63;4.67;;;13.90;99.90;;;;;;5069655;28;20538;-70
2022/01/01 03:34:27;;;;;;;8.10;2.70;;;13.90;99.90;;;;;;5078041;28;20512;-71
2022/01/01 03:36:54;;;;;;;6.40;4.50;;;13.90;99.90;;;;;;5064427;28;20446;-70
2022/01/01 03:39:22;;;;;;;5.90;3.73;;;13.90;99.90;;;;;;5076701;28;20484;-71
2022/01/01 03:41:49;;;;;;;9.90;5.03;;;13.80;99.90;;;;;;5089220;28;20778;-72
2022/01/01 03:44:16;;;;;;;9.67;5.07;;;13.80;99.90;;;;;;5082623;28;21815;-69
2022/01/01 03:46:45;;;;;;;7.37;4.87;;;13.90;99.90;;;;;;5075215;28;20695;-71
2022/01/01 03:49:12;;;;;;;8.87;6.60;;;13.90;99.90;;;;;;5078112;28;20765;-70
2022/01/01 03:51:39;;;;;;;11.30;4.67;;;13.90;99.90;;;;;;5070424;28;20845;-70
2022/01/01 03:54:06;;;;;;;9.10;5.70;;;13.80;99.90;;;;;;5067834;28;20459;-69
2022/01/01 03:56:36;;;;;;;9.67;4.00;;;13.80;99.90;;;;;;5077869;28;20548;-71
2022/01/01 03:59:03;;;;;;;10.03;4.73;;;13.90;99.90;;;;;;5086949;28;20984;-70
2022/01/01 04:01:46;;;;;;;9.50;5.27;;;13.90;99.90;;;;;;5062475;28;20479;-69
2022/01/01 04:04:17;;;;;;;5.07;4.03;;;13.90;99.90;;;;;;5045605;28;20493;-74
2022/01/01 04:06:44;;;;;;;9.63;5.70;;;13.90;99.90;;;;;;5068181;28;20537;-72
2022/01/01 04:09:11;;;;;;;12.53;5.33;;;13.90;99.90;;;;;;5074671;28;20454;-74
2022/01/01 04:11:38;;;;;;;17.80;6.20;;;13.90;99.90;;;;;;5071851;28;20446;-73
2022/01/01 04:14:05;;;;;;;10.87;5.90;;;14.00;99.90;;;;;;5074122;28;20527;-72
2022/01/01 04:16:32;;;;;;;9.43;5.43;;;13.90;99.90;;;;;;5075958;28;20503;-72
2022/01/01 04:18:59;;;;;;;7.03;4.97;;;14.00;99.90;;;;;;5076146;28;20531;-69
2022/01/01 04:21:27;;;;;;;10.17;5.93;;;13.90;99.90;;;;;;5084929;28;20470;-72
2022/01/01 04:23:54;;;;;;;11.97;5.73;;;13.90;99.90;;;;;;5070020;28;20526;-70
2022/01/01 04:26:23;;;;;;;15.20;5.97;;;13.90;99.90;;;;;;5065789;28;20481;-71
2022/01/01 04:28:50;;;;;;;13.07;4.27;;;14.00;99.90;;;;;;5071474;28;20498;-72
2022/01/01 04:31:17;;;;;;;11.30;4.67;;;13.90;99.90;;;;;;5077992;28;20540;-70
2022/01/01 04:33:47;;;;;;;9.10;4.70;;;14.00;99.90;;;;;;5078680;28;20783;-72
2022/01/01 04:36:14;;;;;;;10.53;6.37;;;13.90;99.90;;;;;;5077638;28;20559;-71
2022/01/01 04:38:44;;;;;;;15.37;6.03;;;14.00;99.90;;;;;;5074213;28;20993;-70
2022/01/01 04:41:14;;;;;;;9.40;5.17;;;14.00;99.90;;;;;;5074210;28;20478;-71
2022/01/01 04:43:42;;;;;;;10.60;5.70;;;14.00;99.90;;;;;;5084419;28;20529;-70
2022/01/01 04:46:10;;;;;;;9.77;6.40;;;14.00;99.90;;;;;;5064380;28;20557;-71
2022/01/01 04:48:37;;;;;;;16.33;5.30;;;14.00;99.90;;;;;;5071958;28;20473;-70
2022/01/01 04:51:05;;;;;;;12.93;5.47;;;14.00;99.90;;;;;;5071060;28;20450;-72
2022/01/01 04:53:33;;;;;;;9.20;5.30;;;14.00;99.90;;;;;;5066772;28;20566;-70
2022/01/01 04:56:06;;;;;;;5.80;4.50;;;14.00;99.90;;;;;;5069609;28;20469;-72
2022/01/01 04:58:33;;;;;;;11.30;5.90;;;14.00;99.90;;;;;;5080941;28;20442;-71
2022/01/01 05:01:00;;;;;;;8.80;4.60;;;14.00;99.90;;;;;;5061198;28;20520;-71
2022/01/01 05:03:28;;;;;;;9.20;3.77;;;13.90;99.90;;;;;;5073142;28;20536;-73
2022/01/01 05:05:55;;;;;;;10.10;6.13;;;14.00;99.90;;;;;;5069269;28;20545;-72
2022/01/01 05:08:22;;;;;;;13.10;6.67;;;13.90;99.90;;;;;;5060703;28;20477;-71
2022/01/01 05:10:49;;;;;;;6.27;4.53;;;13.90;99.90;;;;;;5058637;28;20545;-72
2022/01/01 05:13:19;;;;;;;17.23;7.00;;;13.90;99.90;;;;;;5075663;28;21025;-71
2022/01/01 05:15:46;;;;;;;9.80;4.30;;;13.90;99.90;;;;;;5077405;28;20508;-69
2022/01/01 05:18:15;;;;;;;11.70;5.70;;;14.00;99.90;;;;;;5074511;28;20458;-72
2022/01/01 05:20:42;;;;;;;9.37;5.53;;;14.00;99.90;;;;;;5076420;28;20449;-73
2022/01/01 05:23:10;;;;;;;15.00;6.80;;;14.00;99.90;;;;;;5059415;28;20766;-71
2022/01/01 05:25:37;;;;;;;5.73;3.60;;;13.90;99.90;;;;;;5077652;28;20565;-68
2022/01/01 05:28:04;;;;;;;11.73;5.80;;;13.90;99.90;;;;;;5072564;28;20501;-70
2022/01/01 05:33:05;;;;;;;8.63;4.43;;;14.00;99.90;;;;;;5092736;22;20521;-72
2022/01/01 05:35:32;;;;;;;9.57;5.70;;;13.90;99.90;;;;;;5077237;28;20546;-70
2022/01/01 05:37:59;;;;;;;10.07;7.10;;;13.90;99.90;;;;;;5073241;28;20828;-71
2022/01/01 05:40:25;;;;;;;6.63;3.97;;;13.90;99.90;;;;;;5073560;28;20545;-72
2022/01/01 05:42:52;;;;;;;12.37;4.53;;;13.90;99.90;;;;;;5058431;28;20569;-71
2022/01/01 05:45:21;;;;;;;11.07;4.70;;;14.00;99.90;;;;;;5048954;28;20627;-71
2022/01/01 05:47:48;;;;;;;12.93;5.37;;;14.10;99.90;;;;;;5049205;28;20477;-73
2022/01/01 05:50:17;;;;;;;8.00;5.00;;;14.10;99.90;;;;;;5049724;28;20480;-70
2022/01/01 05:52:44;;;;;;;6.60;4.83;;;14.10;99.90;;;;;;5056320;28;20463;-71
2022/01/01 05:55:11;;;;;;;7.73;4.40;;;14.10;99.90;;;;;;5052419;28;20478;-73
2022/01/01 05:57:38;;;;;;;9.40;4.20;;;14.10;99.90;;;;;;5052648;28;20870;-72
2022/01/01 06:00:07;;;;;;;15.10;5.13;;;14.10;99.90;;;;;;5056035;28;20583;-71
2022/01/01 06:02:39;;;;;;;5.77;3.10;;;14.10;99.90;;;;;;5048490;28;20618;-71
2022/01/01 06:05:07;;;;;;;5.83;4.77;;;14.10;99.90;;;;;;5045923;28;21104;-71
2022/01/01 06:07:35;;;;;;;10.10;4.07;;;14.10;99.90;;;;;;5050726;28;20532;-71
2022/01/01 06:10:03;;;;;;;8.80;4.70;;;14.10;99.90;;;;;;5051181;28;20469;-73
2022/01/01 06:12:30;;;;;;;12.20;4.90;;;14.00;99.90;;;;;;5060299;28;20498;-72
2022/01/01 06:14:57;;;;;;;10.40;4.70;;;14.00;99.90;;;;;;5046028;28;20450;-70
2022/01/01 06:17:24;;;;;;;10.70;4.37;;;14.00;99.90;;;;;;5039580;28;20455;-71
2022/01/01 06:19:51;;;;;;;12.03;4.03;;;14.10;99.90;;;;;;5041871;28;20959;-73
2022/01/01 06:22:18;;;;;;;7.20;4.00;;;14.00;99.90;;;;;;5042167;28;20574;-72
2022/01/01 06:24:46;;;;;;;7.23;4.47;;;14.10;99.90;;;;;;5039812;28;20455;-72
2022/01/01 06:27:13;;;;;;;6.83;4.57;;;14.10;99.90;;;;;;5030630;28;20455;-72
2022/01/01 06:29:41;;;;;;;9.53;4.60;;;14.10;99.90;;;;;;5039861;28;20456;-71
2022/01/01 06:32:08;;;;;;;7.90;4.83;;;14.10;99.90;;;;;;5035801;28;20485;-71
2022/01/01 06:34:35;;;;;;;10.23;5.13;;;14.10;99.90;;;;;;5043389;28;20851;-70
2022/01/01 06:37:02;;;;;;;3.43;3.13;;;14.10;99.90;;;;;;5034201;28;20480;-70
2022/01/01 06:39:29;;;;;;;7.70;4.30;;;14.10;99.90;;;;;;5030641;28;20458;-70
2022/01/01 06:41:57;;;;;;;7.40;3.57;;;14.10;99.90;;;;;;5032675;28;21135;-70
2022/01/01 06:44:24;;;;;;;11.60;3.80;;;14.00;99.90;;;;;;5037441;28;20461;-71
2022/01/01 06:46:53;;;;;;;8.50;5.37;;;13.90;99.90;;;;;;5032379;28;20637;-73
2022/01/01 06:49:20;;;;;;;7.50;3.93;;;14.00;99.90;;;;;;5029950;28;20571;-70
2022/01/01 06:51:47;;;;;;;5.33;3.07;;;14.00;99.90;;;;;;5033747;28;20489;-70
2022/01/01 06:54:14;;;;;;;6.23;4.83;;;14.00;99.90;;;;;;5034084;28;20426;-71
2022/01/01 06:56:41;;;;;;;7.10;3.70;;;14.10;99.90;;;;;;5034718;28;20464;-71
2022/01/01 06:59:10;;;;;;;7.53;3.80;;;14.00;99.90;;;;;;5036212;28;20470;-69
2022/01/01 07:01:37;;;;;;;6.43;2.97;;;14.10;99.90;;;;;;5027906;28;21053;-73
2022/01/01 07:04:05;;;;;;;6.67;4.07;;;14.00;99.90;;;;;;5037045;28;20462;-72
2022/01/01 07:06:33;;;;;;;6.00;3.13;;;14.10;99.90;;;;;;5034140;28;20433;-71
2022/01/01 07:09:00;;;;;;;5.53;3.77;;;14.10;99.90;;;;;;5038721;28;20433;-71
2022/01/01 07:11:27;;;;;;;4.87;3.70;;;14.10;99.90;;;;;;5038758;28;22127;-71
2022/01/01 07:13:55;;;;;;;3.20;2.33;;;14.10;99.90;;;;;;5043557;28;20942;-71
2022/01/01 07:16:23;;;;;;;3.43;2.90;;;14.10;99.90;;;;;;5035916;28;20466;-70
2022/01/01 07:18:50;;;;;;;7.30;5.10;;;14.00;99.90;;;;;;5038235;28;20631;-71
2022/01/01 07:21:20;;;;;;;4.80;3.40;;;14.10;99.90;;;;;;5040730;28;20982;-72
2022/01/01 07:23:47;;;;;;;12.63;3.77;;;14.10;99.90;;;;;;5038351;28;20469;-73
2022/01/01 07:26:14;;;;;;;9.83;3.60;;;14.20;99.90;;;;;;5033919;28;20436;-71
2022/01/01 07:28:41;;;;;;;7.03;2.83;;;14.20;99.90;;;;;;5044809;28;20963;-72
2022/01/01 07:31:09;;;;;;;5.90;4.00;;;14.20;99.90;;;;;;5046460;28;20500;-72
2022/01/01 07:33:37;;;;;;;6.20;3.20;;;14.20;99.90;;;;;;5035863;28;21697;-72
2022/01/01 07:36:05;;;;;;;4.60;3.00;;;14.20;99.90;;;;;;5045577;28;20632;-73
2022/01/01 07:38:34;;;;;;;6.90;3.50;;;14.20;99.90;;;;;;5028824;28;20466;-72
2022/01/01 07:41:01;;;;;;;8.70;3.00;;;14.10;99.90;;;;;;5037791;28;20471;-70
2022/01/01 07:43:29;;;;;;;10.03;2.93;;;14.20;99.90;;;;;;5035104;28;20452;-71
2022/01/01 07:45:56;;;;;;;10.23;3.67;;;14.20;99.90;;;;;;5036067;28;20482;-70
2022/01/01 07:48:23;;;;;;;10.13;4.27;;;14.20;99.90;;;;;;5028608;28;20826;-72
2022/01/01 07:50:52;;;;;;;7.30;2.70;;;14.20;99.90;;;;;;5028408;28;20467;-71
2022/01/01 07:53:18;;;;;;;4.13;2.97;;;14.20;99.90;;;;;;5037995;28;20501;-71
2022/01/01 07:55:46;;;;;;;4.83;2.80;;;14.30;99.90;;;;;;5035669;28;20939;-70
2022/01/01 07:58:13;;;;;;;6.93;2.50;;;14.30;99.90;;;;;;5043306;28;20516;-70
2022/01/01 08:00:40;;;;;;;6.17;3.40;;;14.30;99.90;;;;;;5030768;28;20959;-73
2022/01/01 08:03:07;;;;;;;6.60;2.70;;;14.30;99.90;;;;;;5039121;28;20500;-70
2022/01/01 08:05:34;;;;;;;7.93;3.10;;;14.30;99.90;;;;;;5036509;28;20462;-71
2022/01/01 08:08:02;;;;;;;6.50;2.80;;;14.20;99.90;;;;;;5035981;28;20463;-71
2022/01/01 08:10:29;;;;;;;6.00;2.63;;;14.20;99.90;;;;;;5033351;28;20449;-70
2022/01/01 08:12:56;;;;;;;5.27;2.43;;;14.20;99.90;;;;;;5032514;28;20482;-70
2022/01/01 08:15:23;;;;;;;4.07;2.50;;;14.20;99.90;;;;;;5032407;28;20879;-72
2022/01/01 08:17:50;;;;;;;7.03;3.40;;;14.10;99.90;;;;;;5032898;28;20463;-72
2022/01/01 08:20:20;;;;;;;6.17;2.27;;;14.20;99.90;;;;;;5028585;28;20529;-69
2022/01/01 08:22:47;;;;;;;5.90;3.40;;;14.30;99.90;;;;;;5024478;28;20479;-71
2022/01/01 08:25:16;;;;;;;8.40;2.90;;;14.40;99.90;;;;;;5031783;28;20470;-71
2022/01/01 08:27:44;;;;;;;7.20;2.23;;;14.40;99.90;;;;;;5029562;28;20466;-71
2022/01/01 08:30:14;;;;;;;6.33;2.47;;;14.40;99.90;;;;;;5038756;28;20458;-71
2022/01/01 08:32:41;;;;;;;4.60;2.80;;;14.50;99.90;;;;;;5050413;28;20553;-70
2022/01/01 08:35:09;;;;;;;4.00;2.63;;;14.50;99.90;;;;;;5042140;28;20470;-70
2022/01/01 08:37:36;;;;;;;5.70;2.67;;;14.50;99.90;;;;;;5046725;28;20516;-70
2022/01/01 08:40:03;;;;;;;8.43;2.20;;;14.60;99.90;;;;;;5048590;28;20545;-72
2022/01/01 08:42:32;;;;;;;2.30;1.90;;;14.60;99.90;;;;;;5046635;28;21072;-71
2022/01/01 08:44:59;;;;;;;5.27;3.37;;;14.50;99.90;;;;;;5036145;28;20542;-70
2022/01/01 08:47:26;;;;;;;3.60;2.83;;;14.50;99.90;;;;;;5044620;28;20560;-72
2022/01/01 08:49:55;;;;;;;6.90;2.00;;;14.60;99.90;;;;;;5052546;28;20556;-71
2022/01/01 08:52:23;;;;;;;4.90;2.23;;;14.50;99.90;;;;;;5045119;28;20475;-71
2022/01/01 08:54:50;;;;;;;2.63;2.43;;;14.60;99.90;;;;;;5036278;28;20455;-72
2022/01/01 08:57:17;;;;;;;3.17;2.33;;;14.70;99.90;;;;;;5045578;28;20462;-71
2022/01/01 08:59:46;;;;;;;4.80;2.77;;;14.60;99.90;;;;;;5041123;28;20521;-70
2022/01/01 09:02:13;;;;;;;17.33;2.83;;;14.60;99.90;;;;;;5037336;28;20511;-72
2022/01/01 09:04:40;;;;;;;6.20;2.20;;;14.60;99.90;;;;;;5045278;28;20467;-71
2022/01/01 09:07:07;;;;;;;4.47;1.93;;;14.60;99.90;;;;;;5028630;28;20470;-71
2022/01/01 09:09:34;;;;;;;12.20;2.70;;;14.70;99.90;;;;;;5038926;28;20992;-71
2022/01/01 09:12:01;;;;;;;11.37;3.10;;;14.70;99.90;;;;;;5033527;28;21128;-71
2022/01/01 09:14:29;;;;;;;3.50;1.83;;;14.80;99.90;;;;;;5031106;28;20695;-71
2022/01/01 09:16:57;;;;;;;3.93;3.10;;;14.80;99.90;;;;;;5030458;28;20467;-71
2022/01/01 09:19:24;;;;;;;7.70;3.20;;;15.00;99.90;;;;;;5031355;28;20444;-70
2022/01/01 09:21:51;;;;;;;5.53;2.27;;;15.10;99.90;;;;;;5031326;28;20567;-70
2022/01/01 09:24:18;;;;;;;2.07;1.40;;;15.30;99.90;;;;;;5034326;28;20510;-70
2022/01/01 09:26:45;;;;;;;7.03;1.93;;;15.70;99.90;;;;;;5028907;28;21958;-72
2022/01/01 09:29:12;;;;;;;4.40;1.90;;;15.90;99.90;;;;;;5041945;28;20483;-71
2022/01/01 09:31:41;;;;;;;2.97;1.60;;;16.00;99.90;;;;;;5037750;28;20478;-71
2022/01/01 09:34:09;;;;;;;11.80;4.33;;;16.10;99.90;;;;;;5044072;28;20444;-71
2022/01/01 09:36:36;;;;;;;2.93;2.07;;;16.30;99.90;;;;;;5032415;28;20616;-72
2022/01/01 09:39:04;;;;;;;6.50;1.97;;;16.30;99.90;;;;;;5037101;28;21664;-69
2022/01/01 09:41:34;;;;;;;4.13;1.93;;;16.20;99.90;;;;;;5031449;28;20995;-71
2022/01/01 09:44:02;;;;;;;4.40;2.63;;;16.00;99.90;;;;;;5040949;28;20868;-70
2022/01/01 09:46:30;;;;;;;7.13;1.87;;;15.70;99.90;;;;;;5034861;28;20470;-70
2022/01/01 09:48:59;;;;;;;4.10;1.73;;;15.70;99.90;;;;;;5036754;28;20459;-73
2022/01/01 09:51:28;;;;;;;1.83;1.47;;;15.70;99.90;;;;;;5032745;28;20574;-71
2022/01/01 09:53:55;;;;;;;5.33;1.90;;;15.90;99.90;;;;;;5046499;28;20450;-69
2022/01/01 09:56:22;;;;;;;2.17;1.50;;;16.10;99.90;;;;;;5042532;28;20916;-71
2022/01/01 09:58:49;;;;;;;2.43;1.57;;;16.60;99.90;;;;;;5033263;28;20493;-69
2022/01/01 10:01:16;;;;;;;1.97;1.57;;;16.90;99.90;;;;;;5024621;28;20578;-72
2022/01/01 10:03:48;;;;;;;4.93;1.83;;;16.80;99.90;;;;;;5018268;28;20608;-72
2022/01/01 10:06:19;;;;;;;5.27;1.97;;;16.50;99.90;;;;;;5031015;28;20534;-72
2022/01/01 10:08:55;;;;;;;3.70;1.50;;;16.40;99.90;;;;;;5031525;28;20470;-71
2022/01/01 10:11:22;;;;;;;3.73;1.57;;;16.30;99.90;;;;;;5024620;28;20648;-72
2022/01/01 10:13:50;;;;;;;8.80;1.73;;;16.30;99.90;;;;;;5028748;28;20455;-72
2022/01/01 10:16:17;;;;;;;2.40;1.20;;;16.20;99.90;;;;;;5020872;28;20462;-72
2022/01/01 10:18:46;;;;;;;4.67;2.27;;;16.10;99.90;;;;;;5037858;28;20572;-71
2022/01/01 10:21:15;;;;;;;4.30;2.40;;;16.00;99.90;;;;;;5029768;28;20474;-71
2022/01/01 10:23:44;;;;;;;2.07;1.77;;;15.90;99.90;;;;;;5021390;28;20959;-71
2022/01/01 10:29:10;;;;;;;7.63;2.27;;;15.80;99.90;;;;;;5018175;28;20534;-69
2022/01/01 10:31:38;;;;;;;7.43;1.40;;;15.60;99.90;;;;;;5038289;28;20480;-70
2022/01/01 10:34:14;;;;;;;2.73;1.30;;;15.60;99.90;;;;;;5025991;28;20443;-72
2022/01/01 10:36:44;;;;;;;7.07;2.70;;;15.70;99.90;;;;;;5024121;28;20459;-70
2022/01/01 10:39:14;;;;;;;2.43;1.50;;;15.80;99.90;;;;;;5036867;28;20455;-71
2022/01/01 10:41:47;;;;;;;3.33;1.80;;;15.80;99.90;;;;;;5029472;28;20849;-70
2022/01/01 10:44:14;;;;;;;2.17;1.37;;;15.70;99.90;;;;;;5035854;28;20842;-70
2022/01/01 10:46:41;;;;;;;3.63;1.23;;;15.60;99.90;;;;;;5045635;28;20494;-70
2022/01/01 10:52:18;;;;;;;2.60;1.47;;;15.90;99.90;;;;;;5032935;28;20829;-71
2022/01/01 10:54:50;;;;;;;3.53;1.63;;;15.80;99.90;;;;;;5051606;28;20550;-70
2022/01/01 10:57:33;;;;;;;2.27;1.73;;;15.80;99.90;;;;;;5037696;28;20884;-70
2022/01/01 11:00:15;;;;;;;2.80;1.33;;;15.80;99.90;;;;;;5038797;28;20589;-71
2022/01/01 11:02:45;;;;;;;4.43;1.60;;;15.80;99.90;;;;;;5050117;28;20672;-72
2022/01/01 11:05:13;;;;;;;4.10;1.40;;;16.00;99.90;;;;;;5046538;28;20549;-72
2022/01/01 11:07:50;;;;;;;4.57;2.00;;;16.20;99.90;;;;;;5044706;28;20458;-71
2022/01/01 11:10:18;;;;;;;3.97;1.63;;;16.40;99.90;;;;;;5041512;28;20450;-71
2022/01/01 11:12:47;;;;;;;7.73;2.00;;;16.30;99.90;;;;;;5048227;28;20489;-71
2022/01/01 11:15:15;;;;;;;2.23;1.40;;;16.30;99.90;;;;;;5040765;28;20617;-72
2022/01/01 11:17:43;;;;;;;2.00;1.40;;;16.40;99.90;;;;;;5042199;28;20551;-71
2022/01/01 11:20:11;;;;;;;3.67;1.43;;;16.30;99.90;;;;;;5037709;28;20741;-72
2022/01/01 11:22:38;;;;;;;2.10;1.83;;;16.20;99.90;;;;;;5041802;28;20550;-72
2022/01/01 11:25:06;;;;;;;5.70;1.67;;;16.30;99.90;;;;;;5040775;28;20466;-71
2022/01/01 11:27:33;;;;;;;2.07;1.83;;;16.40;99.90;;;;;;5030572;28;20467;-71
2022/01/01 11:30:05;;;;;;;6.60;1.83;;;16.50;99.90;;;;;;5042135;28;20446;-70
2022/01/01 11:35:01;;;;;;;1.80;1.50;;;16.80;99.90;;;;;;5048938;28;20485;-71
2022/01/01 11:37:45;;;;;;;1.83;1.20;;;16.90;99.90;;;;;;5062573;28;20821;-73
2022/01/01 11:40:16;;;;;;;2.20;1.47;;;16.70;99.90;;;;;;5066129;28;20527;-70
2022/01/01 11:42:45;;;;;;;15.10;3.13;;;16.60;99.90;;;;;;5065198;28;20502;-71
2022/01/01 11:45:41;;;;;;;2.30;1.60;;;16.70;99.90;;;;;;5049845;28;20459;-70
2022/01/01 11:48:45;;;;;;;3.10;1.63;;;16.70;99.90;;;;;;5059657;28;20467;-71
2022/01/01 11:51:24;;;;;;;3.63;1.47;;;16.80;99.90;;;;;;4956873;28;20462;-71
2022/01/01 11:54:16;;;;;;;8.90;1.93;;;16.90;99.90;;;;;;4955530;28;20555;-69
2022/01/01 11:57:05;;;;;;;5.63;2.20;;;16.90;99.90;;;;;;5024525;28;20454;-69
2022/01/01 11:59:40;;;;;;;5.50;1.37;;;17.00;99.90;;;;;;5022635;28;20617;-70
2022/01/01 12:02:30;;;;;;;1.90;1.30;;;17.10;99.90;;;;;;5046520;28;20927;-71
2022/01/01 12:05:12;;;;;;;2.70;1.37;;;16.90;99.90;;;;;;5043277;28;20479;-70
2022/01/01 12:07:48;;;;;;;2.60;2.40;;;17.00;99.90;;;;;;5053318;28;20452;-71
2022/01/01 12:10:21;;;;;;;2.63;1.60;;;17.00;99.90;;;;;;5051519;28;20457;-71
2022/01/01 12:12:50;;;;;;;2.70;1.97;;;16.70;99.90;;;;;;5036480;28;20467;-74
2022/01/01 12:15:32;;;;;;;7.13;1.90;;;16.80;99.90;;;;;;5034784;28;20742;-72
2022/01/01 12:18:03;;;;;;;2.07;1.33;;;16.70;99.90;;;;;;5027381;28;20493;-73
2022/01/01 12:20:33;;;;;;;1.60;1.40;;;16.70;99.90;;;;;;5034150;28;20725;-73
2022/01/01 12:23:05;;;;;;;1.53;1.43;;;16.90;99.90;;;;;;5009287;28;20591;-73
2022/01/01 12:25:34;;;;;;;2.20;1.70;;;17.00;99.90;;;;;;5036030;28;20462;-71
2022/01/01 12:28:05;;;;;;;1.70;1.10;;;16.90;99.90;;;;;;5051415;28;20474;-71
2022/01/01 12:30:44;;;;;;;1.50;1.00;;;17.00;99.90;;;;;;5053467;28;20543;-72
2022/01/01 12:33:22;;;;;;;1.70;1.30;;;16.90;99.90;;;;;;5046769;28;20564;-73
2022/01/01 12:35:51;;;;;;;2.07;0.90;;;16.70;99.90;;;;;;5049806;28;20458;-72
2022/01/01 12:38:20;;;;;;;1.57;1.10;;;16.60;99.90;;;;;;5054731;28;20470;-73
2022/01/01 12:41:02;;;;;;;2.20;2.00;;;16.50;99.90;;;;;;5046732;28;20833;-73
2022/01/01 12:43:32;;;;;;;2.30;1.20;;;16.70;99.90;;;;;;5059257;28;20486;-70
2022/01/01 12:46:01;;;;;;;3.40;2.13;;;16.70;99.90;;;;;;5046386;28;20486;-73
2022/01/01 12:48:32;;;;;;;4.13;1.53;;;16.80;99.90;;;;;;5034185;28;20959;-72
2022/01/01 12:51:02;;;;;;;2.53;2.00;;;16.80;99.90;;;;;;5046592;28;20451;-73
2022/01/01 12:53:30;;;;;;;4.90;2.10;;;16.70;99.90;;;;;;5047024;28;20457;-73
2022/01/01 12:56:06;;;;;;;4.70;1.47;;;16.90;99.90;;;;;;5050322;28;20458;-73
2022/01/01 12:58:41;;;;;;;2.70;1.63;;;17.00;99.90;;;;;;5046416;28;20462;-74
2022/01/01 13:01:18;;;;;;;4.33;2.00;;;16.80;99.90;;;;;;5040486;28;20512;-71
2022/01/01 13:03:49;;;;;;;5.43;1.60;;;16.80;99.90;;;;;;5034716;28;20634;-71